Eynsford, United Kingdom
Current Conditions -  °F | °C
As of 7:20 AM on Thursday 23 Oct 2014 (Local Time) from EGKB Reporting Station
Broken Clouds Broken Clouds  
Wind Chill: 52°   Ceiling: 2500
Heat Index: 52°   Visibility: 6mi
Dew Point: 43°   Wind: 10mph
Humidity: 71%   Direction: 220°SW
Pressure: 30.15"   Gusts: NA
Location:  51.37°N, 0.21°E
Report Text: EGKB 230620Z 22009KT 9999 BKN025 11/06 Q1021
Loading
Personal Weather Stations






























Interactive Weather Map New forecast layout! Learn more

10-Day Weather Forecast

Advertisements
Track Severe Weather on mobile